Time;durP1;ratioP1;P1;durP2;ratioP2;P2;SDS_P1;SDS_P2;PMS_P1;PMS_P2;Temp;Humidity;BMP_temperature;BMP_pressure;BME280_temperature;BME280_humidity;BME280_pressure;Samples;Min_cycle;Max_cycle;Signal;HPM_P1;HPM_P2
2022/02/17 00:00:15;;;;;;;;;90.75;78.75;;;;;2.37;100.00;100406.28;3725026;38;18296;-62
2022/02/17 00:02:45;;;;;;;;;88.00;72.50;;;;;2.30;100.00;100397.97;3724986;38;18306;-63
2022/02/17 00:05:15;;;;;;;;;94.50;77.50;;;;;2.26;100.00;100404.56;3725055;37;18229;-62
2022/02/17 00:07:43;;;;;;;;;95.75;79.75;;;;;2.26;100.00;100399.22;3725119;37;18283;-61
2022/02/17 00:10:13;;;;;;;;;91.25;77.00;;;;;2.19;100.00;100413.22;3724953;38;18205;-62
2022/02/17 00:12:40;;;;;;;;;98.75;87.50;;;;;2.15;100.00;100404.62;3724915;38;18291;-63
2022/02/17 00:15:09;;;;;;;;;92.00;74.50;;;;;2.13;100.00;100405.75;3724564;37;18243;-64
2022/02/17 00:17:38;;;;;;;;;90.75;77.50;;;;;2.10;100.00;100404.19;3724950;38;18503;-61
2022/02/17 00:20:08;;;;;;;;;90.50;81.25;;;;;2.10;100.00;100409.53;3724547;37;18260;-61
2022/02/17 00:22:40;;;;;;;;;87.75;72.25;;;;;2.01;100.00;100404.19;3724486;37;18508;-63
2022/02/17 00:25:09;;;;;;;;;91.75;77.00;;;;;1.95;100.00;100413.56;3724896;37;18203;-64
2022/02/17 00:27:40;;;;;;;;;93.50;82.00;;;;;1.85;100.00;100405.50;3724674;37;18183;-62
2022/02/17 00:30:09;;;;;;;;;91.50;72.00;;;;;1.81;100.00;100408.53;3724937;37;18196;-61
2022/02/17 00:32:38;;;;;;;;;75.50;58.50;;;;;1.69;100.00;100409.59;3725043;38;18219;-62
2022/02/17 00:35:06;;;;;;;;;96.00;83.75;;;;;1.59;100.00;100397.03;3725077;37;18172;-62
2022/02/17 00:37:34;;;;;;;;;94.25;81.00;;;;;1.50;100.00;100395.16;3725043;38;18184;-65
2022/02/17 00:40:04;;;;;;;;;98.25;74.50;;;;;1.50;100.00;100387.16;3724567;38;18170;-62
2022/02/17 00:42:31;;;;;;;;;90.50;74.75;;;;;1.53;100.00;100392.25;3725138;37;18161;-64
2022/02/17 00:44:58;;;;;;;;;93.50;79.50;;;;;1.55;100.00;100394.78;3724996;38;18224;-65
2022/02/17 00:47:28;;;;;;;;;89.00;70.50;;;;;1.53;100.00;100378.91;3725070;37;18182;-63
2022/02/17 00:49:55;;;;;;;;;93.25;78.50;;;;;1.60;100.00;100385.38;3724600;37;18493;-62
2022/02/17 00:52:26;;;;;;;;;93.50;74.75;;;;;1.48;100.00;100373.13;3724886;38;18171;-62
2022/02/17 00:54:54;;;;;;;;;91.75;78.00;;;;;1.43;100.00;100375.31;3724821;37;18177;-64
2022/02/17 00:57:24;;;;;;;;;90.00;72.50;;;;;1.35;100.00;100374.28;3724951;37;18299;-65
2022/02/17 00:59:51;;;;;;;;;94.25;73.75;;;;;1.33;100.00;100382.41;3724475;37;18448;-65
2022/02/17 01:02:19;;;;;;;;;86.25;73.00;;;;;1.27;100.00;100369.59;3724402;38;18209;-61
2022/02/17 01:04:47;;;;;;;;;89.50;71.50;;;;;1.20;100.00;100379.06;3724591;37;18161;-63
2022/02/17 01:07:19;;;;;;;;;89.00;69.25;;;;;1.13;100.00;100361.91;3724619;37;18317;-62
2022/02/17 01:09:46;;;;;;;;;93.75;75.00;;;;;1.05;100.00;100356.34;3724922;37;18170;-64
2022/02/17 01:12:15;;;;;;;;;91.25;73.00;;;;;0.92;100.00;100351.22;3724829;37;18125;-63
2022/02/17 01:14:44;;;;;;;;;92.25;71.25;;;;;0.79;100.00;100356.72;3724683;37;18295;-63
2022/02/17 01:17:11;;;;;;;;;86.00;64.00;;;;;0.79;100.00;100347.88;3725012;37;18122;-63
2022/02/17 01:19:39;;;;;;;;;91.75;71.75;;;;;0.89;100.00;100349.66;3725025;37;18211;-63
2022/02/17 01:22:06;;;;;;;;;86.00;69.25;;;;;0.83;100.00;100350.16;3725354;38;18107;-63
2022/02/17 01:24:36;;;;;;;;;78.00;60.50;;;;;0.76;100.00;100356.13;3725309;37;18110;-63
2022/02/17 01:27:06;;;;;;;;;86.00;66.50;;;;;0.76;100.00;100343.66;3724908;37;18138;-63
2022/02/17 01:29:34;;;;;;;;;84.00;65.00;;;;;0.75;100.00;100336.63;3725009;37;18114;-61
2022/02/17 01:32:04;;;;;;;;;66.50;51.50;;;;;0.66;100.00;100310.75;3724819;38;18092;-62
2022/02/17 01:34:33;;;;;;;;;88.00;69.00;;;;;0.88;100.00;100333.81;3725324;38;18230;-64
2022/02/17 01:37:07;;;;;;;;;86.75;64.75;;;;;0.87;100.00;100338.28;3725150;37;18110;-62
2022/02/17 01:39:37;;;;;;;;;78.25;61.25;;;;;0.81;100.00;100329.94;3730560;37;18249;-63
2022/02/17 01:42:11;;;;;;;;;81.00;62.75;;;;;0.68;100.00;100318.63;3731352;37;20948;-64
2022/02/17 01:44:44;;;;;;;;;80.50;63.25;;;;;0.65;100.00;100325.03;3728253;38;20934;-64
2022/02/17 01:47:14;;;;;;;;;80.25;63.25;;;;;0.55;100.00;100311.63;3725131;37;18095;-64
2022/02/17 01:49:46;;;;;;;;;81.00;63.00;;;;;0.48;100.00;100310.47;3725139;38;20858;-64
2022/02/17 01:52:14;;;;;;;;;77.00;60.50;;;;;0.37;100.00;100306.97;3724671;38;20900;-63
2022/02/17 01:54:45;;;;;;;;;78.00;60.50;;;;;0.39;100.00;100302.38;3725017;38;20884;-63
2022/02/17 01:57:16;;;;;;;;;71.50;58.75;;;;;0.43;100.00;100304.66;3725073;37;21074;-62
2022/02/17 01:59:49;;;;;;;;;76.75;60.00;;;;;0.46;100.00;100303.56;3724325;38;20922;-63
2022/02/17 02:02:28;;;;;;;;;78.25;61.50;;;;;0.49;100.00;100293.53;3724734;37;20786;-62
2022/02/17 02:05:00;;;;;;;;;78.25;58.25;;;;;0.44;100.00;100284.22;3724736;38;20916;-63
2022/02/17 02:07:29;;;;;;;;;79.00;61.50;;;;;0.41;100.00;100280.00;3724767;37;20891;-63
2022/02/17 02:10:03;;;;;;;;;77.75;59.00;;;;;0.36;100.00;100273.34;3724853;38;21076;-63
2022/02/17 02:12:35;;;;;;;;;73.00;58.75;;;;;0.38;100.00;100266.09;3724799;37;20888;-63
2022/02/17 02:15:09;;;;;;;;;77.50;61.75;;;;;0.38;100.00;100260.75;3724560;38;20876;-63
2022/02/17 02:17:40;;;;;;;;;79.25;61.75;;;;;0.33;100.00;100264.63;3724877;38;20854;-64
2022/02/17 02:20:09;;;;;;;;;84.50;63.25;;;;;0.37;100.00;100265.25;3724869;38;21067;-62
2022/02/17 02:22:44;;;;;;;;;79.50;61.75;;;;;0.39;100.00;100254.47;3724956;38;20857;-64
2022/02/17 02:25:16;;;;;;;;;82.00;66.00;;;;;0.37;100.00;100256.41;3724621;38;20803;-62
2022/02/17 02:27:47;;;;;;;;;84.50;64.25;;;;;0.36;100.00;100249.41;3724491;37;21065;-63
2022/02/17 02:30:18;;;;;;;;;73.75;59.00;;;;;0.35;100.00;100239.72;3724767;38;20804;-63
2022/02/17 02:32:49;;;;;;;;;81.25;59.50;;;;;0.34;100.00;100236.22;3724468;38;20774;-62
2022/02/17 02:35:17;;;;;;;;;80.25;62.25;;;;;0.33;100.00;100230.03;3724480;38;20731;-62
2022/02/17 02:37:45;;;;;;;;;78.25;60.50;;;;;0.33;100.00;100226.53;3724934;38;20769;-63
2022/02/17 02:40:31;;;;;;;;;77.50;55.25;;;;;0.19;100.00;100225.00;3724278;37;20811;-63
2022/02/17 02:43:01;;;;;;;;;71.75;60.25;;;;;0.18;100.00;100218.00;3724822;38;20826;-62
2022/02/17 02:45:29;;;;;;;;;78.75;62.25;;;;;0.18;100.00;100212.66;3724172;37;20820;-63
2022/02/17 02:48:04;;;;;;;;;78.00;61.25;;;;;0.20;100.00;100213.37;3725031;37;20797;-65
2022/02/17 02:50:31;;;;;;;;;79.00;62.00;;;;;0.23;100.00;100207.81;3724876;38;20954;-64
2022/02/17 02:52:58;;;;;;;;;71.75;57.00;;;;;0.30;100.00;100210.81;3724904;37;20771;-64
2022/02/17 02:55:27;;;;;;;;;73.50;57.00;;;;;0.29;100.00;100214.44;3724850;37;20866;-64
2022/02/17 02:57:55;;;;;;;;;74.25;57.25;;;;;0.25;100.00;100202.38;3724613;37;20710;-66
2022/02/17 03:00:24;;;;;;;;;82.25;63.00;;;;;0.21;100.00;100196.44;3724848;38;21103;-64
2022/02/17 03:02:52;;;;;;;;;82.75;63.50;;;;;0.11;100.00;100184.88;3724911;38;20822;-65
2022/02/17 03:05:20;;;;;;;;;78.25;61.75;;;;;0.10;100.00;100177.84;3724815;37;20805;-62
2022/02/17 03:07:47;;;;;;;;;79.00;62.00;;;;;0.06;100.00;100162.28;3724908;37;20777;-62
2022/02/17 03:10:15;;;;;;;;;78.50;59.00;;;;;0.14;100.00;100160.66;3724923;37;20837;-63
2022/02/17 03:12:43;;;;;;;;;77.75;61.75;;;;;0.17;100.00;100170.22;3725337;37;20776;-62
2022/02/17 03:15:11;;;;;;;;;74.00;58.75;;;;;0.14;100.00;100163.31;3727835;37;20900;-62
2022/02/17 03:17:39;;;;;;;;;76.75;61.00;;;;;0.08;100.00;100155.00;3725054;38;20793;-63
2022/02/17 03:20:08;;;;;;;;;72.75;58.00;;;;;0.13;100.00;100151.00;3725050;38;20792;-61
2022/02/17 03:22:37;;;;;;;;;82.00;62.75;;;;;0.12;100.00;100151.12;3725029;38;20994;-64
2022/02/17 03:25:11;;;;;;;;;44.75;34.50;;;;;0.13;100.00;100150.16;3724684;37;20805;-62
2022/02/17 03:27:42;;;;;;;;;73.00;56.75;;;;;0.10;100.00;100143.28;3724838;37;20865;-62
2022/02/17 03:30:35;;;;;;;;;83.25;63.75;;;;;-0.02;100.00;100131.00;3724863;38;20786;-64
2022/02/17 03:33:14;;;;;;;;;81.25;63.50;;;;;0.00;100.00;100145.03;3725107;38;20954;-62
2022/02/17 03:35:41;;;;;;;;;72.75;58.00;;;;;-0.04;100.00;100143.59;3724836;37;20790;-64
2022/02/17 03:38:10;;;;;;;;;69.25;57.00;;;;;-0.07;100.00;100133.19;3724950;38;20763;-63
2022/02/17 03:40:42;;;;;;;;;76.00;60.50;;;;;0.02;100.00;100137.72;3724936;38;20990;-62
2022/02/17 03:43:12;;;;;;;;;77.00;59.00;;;;;0.01;100.00;100144.03;3725034;37;20829;-64
2022/02/17 03:45:40;;;;;;;;;82.25;62.50;;;;;-0.03;100.00;100139.97;3724914;37;20790;-62
2022/02/17 03:48:10;;;;;;;;;84.75;64.25;;;;;-0.01;100.00;100130.03;3724887;37;20734;-63
2022/02/17 03:50:40;;;;;;;;;86.50;64.25;;;;;-0.04;100.00;100127.63;3724997;38;17948;-62
2022/02/17 03:53:14;;;;;;;;;86.00;66.00;;;;;-0.02;100.00;100139.84;3724856;38;18192;-64
2022/02/17 03:55:47;;;;;;;;;85.50;64.75;;;;;-0.02;100.00;100137.16;3725056;37;18095;-64
2022/02/17 03:59:00;;;;;;;;;83.50;67.00;;;;;-0.02;100.00;100137.16;3725640;37;20873;-63
2022/02/17 04:01:08;;;;;;;;;91.00;70.50;;;;;0.01;100.00;100133.38;3724920;38;17929;-63
2022/02/17 04:03:41;;;;;;;;;87.00;66.25;;;;;-0.03;100.00;100126.66;3725274;38;18238;-63
2022/02/17 04:06:10;;;;;;;;;86.75;65.50;;;;;-0.04;100.00;100117.00;3724727;37;17997;-64
2022/02/17 04:08:37;;;;;;;;;91.00;72.25;;;;;-0.08;100.00;100111.06;3724636;37;17902;-63
2022/02/17 04:11:05;;;;;;;;;83.75;64.75;;;;;-0.16;100.00;100100.22;3724879;38;17954;-63
2022/02/17 04:13:42;;;;;;;;;101.00;89.50;;;;;-0.25;100.00;100084.19;3725109;37;17910;-64
2022/02/17 04:16:12;;;;;;;;;87.75;69.50;;;;;-0.18;100.00;100098.66;3724987;37;17908;-64
2022/02/17 04:18:48;;;;;;;;;92.75;69.50;;;;;-0.18;100.00;100093.34;3725148;38;18173;-66
2022/02/17 04:21:34;;;;;;;;;96.00;80.75;;;;;-0.16;100.00;100096.72;3725073;37;17955;-63
2022/02/17 04:24:29;;;;;;;;;93.00;74.50;;;;;-0.18;100.00;100093.34;3724927;37;17904;-65
2022/02/17 04:27:00;;;;;;;;;96.50;76.50;;;;;-0.16;100.00;100091.41;3724939;37;17892;-63
2022/02/17 04:29:35;;;;;;;;;95.75;84.75;;;;;-0.15;100.00;100085.09;3725129;38;17859;-63
2022/02/17 04:32:08;;;;;;;;;89.25;70.00;;;;;-0.13;100.00;100085.81;3724835;37;17876;-64
2022/02/17 04:34:37;;;;;;;;;94.25;75.50;;;;;-0.10;100.00;100082.91;3724939;38;17854;-63
2022/02/17 04:37:09;;;;;;;;;97.75;81.00;;;;;-0.16;100.00;100068.31;3724820;38;18173;-64
2022/02/17 04:39:36;;;;;;;;;90.25;76.75;;;;;-0.25;100.00;100052.25;3724919;37;17846;-64
2022/02/17 04:42:18;;;;;;;;;85.50;64.50;;;;;-0.13;100.00;100059.22;3724902;37;17845;-64
2022/02/17 04:44:49;;;;;;;;;89.75;69.50;;;;;-0.13;100.00;100038.81;3724849;37;17859;-63
2022/02/17 04:47:19;;;;;;;;;94.25;73.50;;;;;-0.30;100.00;100004.78;3724981;37;17853;-63
2022/02/17 04:49:50;;;;;;;;;94.00;71.75;;;;;-0.10;100.00;100027.06;3724847;37;17906;-65
2022/02/17 04:52:19;;;;;;;;;89.50;69.50;;;;;-0.06;100.00;100032.00;3724929;37;17856;-65
2022/02/17 04:54:47;;;;;;;;;94.00;75.75;;;;;-0.08;100.00;100031.28;3724710;37;17885;-65
2022/02/17 04:57:18;;;;;;;;;96.75;82.50;;;;;-0.11;100.00;100036.00;3725019;38;17824;-65
2022/02/17 04:59:48;;;;;;;;;100.25;85.50;;;;;-0.12;100.00;100031.66;3724632;38;17921;-64
2022/02/17 05:02:18;;;;;;;;;86.25;68.75;;;;;-0.16;100.00;100027.56;3724874;37;17824;-66
2022/02/17 05:04:52;;;;;;;;;100.50;81.50;;;;;-0.16;100.00;100016.94;3724836;37;17825;-67
2022/02/17 05:07:27;;;;;;;;;101.50;80.75;;;;;-0.16;100.00;100022.25;3724936;38;17820;-65
2022/02/17 05:09:54;;;;;;;;;101.75;93.75;;;;;-0.22;100.00;100018.28;3725150;37;17824;-65
2022/02/17 05:12:47;;;;;;;;;95.50;77.00;;;;;-0.24;100.00;100019.38;3724959;37;17811;-63
2022/02/17 05:15:16;;;;;;;;;108.25;101.25;;;;;-0.13;100.00;100016.69;3724651;38;17824;-67
2022/02/17 05:17:46;;;;;;;;;104.00;90.25;;;;;-0.20;100.00;99994.22;3725407;37;17870;-64
2022/02/17 05:20:16;;;;;;;;;115.00;97.50;;;;;-0.11;100.00;100007.59;3725086;38;17799;-65
2022/02/17 05:23:03;;;;;;;;;126.75;110.25;;;;;-0.12;100.00;100007.72;3724990;37;18082;-65
2022/02/17 05:26:02;;;;;;;;;127.00;109.75;;;;;-0.12;100.00;100005.91;3725061;38;17804;-64
2022/02/17 05:28:58;;;;;;;;;154.75;132.50;;;;;-0.16;100.00;99985.87;3724725;37;17797;-63
2022/02/17 05:31:44;;;;;;;;;174.75;153.75;;;;;-0.02;100.00;100008.66;3725183;38;17785;-64
2022/02/17 05:34:39;;;;;;;;;181.50;155.50;;;;;0.05;100.00;100011.59;3725082;38;17791;-62
2022/02/17 05:37:28;;;;;;;;;154.00;134.50;;;;;0.11;100.00;100005.75;3724826;37;17834;-62
2022/02/17 05:40:14;;;;;;;;;155.75;143.25;;;;;0.14;100.00;99998.34;3725143;38;17776;-63
2022/02/17 05:42:41;;;;;;;;;151.50;132.25;;;;;0.19;100.00;99985.50;3724597;37;17796;-63
2022/02/17 05:45:11;;;;;;;;;140.75;128.00;;;;;0.18;100.00;99989.12;3724626;38;17763;-64
2022/02/17 05:47:41;;;;;;;;;124.75;109.25;;;;;0.23;100.00;99983.44;3724589;38;17791;-64
2022/02/17 05:50:09;;;;;;;;;115.25;99.50;;;;;0.32;100.00;99983.47;3724659;37;17749;-62
2022/02/17 05:52:37;;;;;;;;;161.00;144.75;;;;;0.42;100.00;99980.88;3724607;37;17765;-62
2022/02/17 05:55:20;;;;;;;;;175.75;155.50;;;;;0.51;100.00;99985.41;3724997;37;17853;-62
2022/02/17 05:57:47;;;;;;;;;174.00;154.75;;;;;0.45;100.00;99966.44;3725276;37;17764;-65
2022/02/17 06:00:19;;;;;;;;;166.50;146.50;;;;;0.61;100.00;99983.59;3726419;37;17757;-64
2022/02/17 06:02:46;;;;;;;;;164.50;145.50;;;;;0.71;100.00;99986.28;3725289;38;17770;-64
2022/02/17 06:05:16;;;;;;;;;208.75;179.25;;;;;0.80;100.00;99988.16;3726821;38;17736;-63
2022/02/17 06:07:49;;;;;;;;;189.50;159.00;;;;;0.90;100.00;99990.84;3736172;38;17771;-66
2022/02/17 06:10:19;;;;;;;;;145.25;122.00;;;;;1.01;100.00;99980.09;3739094;37;17757;-63
2022/02/17 06:12:47;;;;;;;;;151.25;124.75;;;;;1.07;100.00;99974.19;3729536;38;17734;-63
2022/02/17 06:15:17;;;;;;;;;130.25;114.75;;;;;1.31;100.00;99977.31;3725828;37;17761;-64
2022/02/17 06:17:44;;;;;;;;;136.25;116.50;;;;;1.47;100.00;99970.59;3725774;37;17715;-63
2022/02/17 06:20:13;;;;;;;;;121.00;114.00;;;;;1.65;100.00;99974.22;3725011;37;17744;-67
2022/02/17 06:22:48;;;;;;;;;142.50;127.25;;;;;1.79;100.00;99968.47;3725499;38;17734;-62
2022/02/17 06:25:23;;;;;;;;;180.25;155.00;;;;;1.90;100.00;99954.97;3725398;38;17742;-61
2022/02/17 06:27:52;;;;;;;;;139.75;121.50;;;;;2.02;100.00;99946.81;3724820;37;17715;-65
2022/02/17 06:30:26;;;;;;;;;142.75;128.25;;;;;2.21;100.00;99942.22;3724981;37;17706;-62
2022/02/17 06:32:57;;;;;;;;;148.00;130.75;;;;;2.34;100.00;99941.91;3726302;37;17803;-65
2022/02/17 06:35:29;;;;;;;;;153.50;135.75;;;;;2.52;100.00;99934.81;3725276;37;18024;-64
2022/02/17 06:37:57;;;;;;;;;118.25;102.00;;;;;2.78;100.00;99934.13;3725439;37;17715;-66
2022/02/17 06:40:26;;;;;;;;;93.25;85.75;;;;;3.02;100.00;99937.06;3725122;38;17692;-63
2022/02/17 06:43:13;;;;;;;;;78.00;62.00;;;;;3.37;100.00;99924.72;3724862;38;17707;-63
2022/02/17 06:45:43;;;;;;;;;69.25;56.25;;;;;3.77;100.00;99922.34;3725211;37;17706;-63
2022/02/17 06:48:13;;;;;;;;;63.75;51.75;;;;;4.11;100.00;99913.56;3724629;38;20417;-63
2022/02/17 06:50:41;;;;;;;;;55.25;45.00;;;;;4.43;100.00;99904.84;3724554;37;20425;-60
2022/02/17 06:53:09;;;;;;;;;40.25;34.75;;;;;4.86;100.00;99903.84;3725260;37;20482;-61
2022/02/17 06:55:37;;;;;;;;;37.50;34.50;;;;;5.29;100.00;99892.00;3725433;37;20442;-64
2022/02/17 06:58:05;;;;;;;;;32.50;31.00;;;;;5.71;100.00;99888.34;3724902;37;20394;-63
2022/02/17 07:00:33;;;;;;;;;38.50;33.50;;;;;5.97;100.00;99889.00;3724971;38;20409;-63
2022/02/17 07:03:04;;;;;;;;;34.00;32.25;;;;;6.29;100.00;99893.44;3725027;37;20456;-62
2022/02/17 07:05:35;;;;;;;;;34.75;32.50;;;;;6.56;100.00;99878.75;3725191;37;20380;-63
2022/02/17 07:08:04;;;;;;;;;30.00;27.50;;;;;6.74;100.00;99879.34;3724877;37;20331;-68
2022/02/17 07:13:18;;;;;;;;;27.50;27.25;;;;;7.12;100.00;99864.16;3725198;38;20626;-63
2022/02/17 07:15:47;;;;;;;;;25.50;24.00;;;;;7.25;100.00;99863.56;3725586;37;20410;-68
2022/02/17 07:18:17;;;;;;;;;27.00;26.00;;;;;7.34;100.00;99854.38;3725104;38;20399;-64
2022/02/17 07:20:47;;;;;;;;;30.25;27.75;;;;;7.55;100.00;99853.72;3725324;37;20365;-66
2022/02/17 07:23:26;;;;;;;;;29.75;27.50;;;;;7.72;100.00;99857.13;3728867;38;20379;-65
2022/02/17 07:25:57;;;;;;;;;32.25;28.50;;;;;7.81;100.00;99839.81;3739051;37;20303;-65
2022/02/17 07:28:27;;;;;;;;;27.25;25.75;;;;;8.03;100.00;99840.78;3734517;37;20317;-64
2022/02/17 07:30:58;;;;;;;;;35.00;32.50;;;;;8.19;100.00;99833.37;3737677;37;20316;-65
2022/02/17 07:33:28;;;;;;;;;24.50;24.25;;;;;8.34;100.00;99832.53;3736953;38;20304;-66
2022/02/17 07:35:57;;;;;;;;;29.00;26.50;;;;;8.46;100.00;99839.97;3725938;37;20408;-64
2022/02/17 07:38:25;;;;;;;;;29.00;25.50;;;;;8.54;100.00;99833.63;3725552;38;20414;-64
2022/02/17 07:40:53;;;;;;;;;28.25;26.75;;;;;8.71;100.00;99810.00;3725041;38;20322;-65
2022/02/17 07:43:26;;;;;;;;;26.50;25.75;;;;;8.77;100.00;99810.06;3725558;37;20384;-64
2022/02/17 07:46:14;;;;;;;;;26.25;25.75;;;;;8.99;100.00;99818.16;3725629;38;20407;-65
2022/02/17 07:48:42;;;;;;;;;25.75;23.75;;;;;9.15;100.00;99797.16;3725588;37;20309;-65
2022/02/17 07:51:10;;;;;;;;;26.25;22.50;;;;;9.35;100.00;99791.97;3725211;37;20397;-66
2022/02/17 07:53:38;;;;;;;;;31.00;29.50;;;;;9.57;100.00;99796.28;3724552;38;20287;-63
2022/02/17 07:56:11;;;;;;;;;30.50;29.00;;;;;9.79;100.00;99774.63;3724430;37;20358;-66
2022/02/17 07:58:39;;;;;;;;;33.00;31.50;;;;;10.01;100.00;99772.66;3724378;37;21380;-64
2022/02/17 08:01:07;;;;;;;;;33.50;31.75;;;;;10.19;100.00;99770.28;3724638;38;21568;-63
2022/02/17 08:03:36;;;;;;;;;28.25;26.50;;;;;10.33;100.00;99763.09;3724474;37;21487;-64
2022/02/17 08:06:07;;;;;;;;;31.00;26.75;;;;;10.48;100.00;99756.47;3723911;37;21351;-65
2022/02/17 08:08:36;;;;;;;;;29.50;26.75;;;;;10.52;100.00;99744.22;3725121;38;21328;-66
2022/02/17 08:11:07;;;;;;;;;22.00;19.75;;;;;10.67;100.00;99741.34;3725074;37;20246;-63
2022/02/17 08:13:38;;;;;;;;;26.25;24.25;;;;;10.77;100.00;99755.31;3725110;37;21255;-63
2022/02/17 08:16:06;;;;;;;;;22.50;21.75;;;;;10.75;100.00;99746.56;3724874;37;21537;-62
2022/02/17 08:18:33;;;;;;;;;24.25;23.00;;;;;10.91;100.00;99758.91;3725079;37;21368;-65
2022/02/17 08:21:01;;;;;;;;;25.00;22.50;;;;;10.93;100.00;99735.13;3725257;37;21349;-62
2022/02/17 08:23:32;;;;;;;;;27.75;23.75;;;;;11.07;100.00;99739.53;3725015;38;21259;-61
2022/02/17 08:26:01;;;;;;;;;20.75;19.50;;;;;11.22;100.00;99745.59;3725048;37;21327;-62
2022/02/17 08:28:28;;;;;;;;;22.00;21.50;;;;;11.30;100.00;99727.47;3724663;37;21416;-63
2022/02/17 08:30:58;;;;;;;;;27.00;24.75;;;;;11.35;100.00;99728.50;3725164;37;21565;-67
2022/02/17 08:33:27;;;;;;;;;25.00;23.50;;;;;11.47;100.00;99728.69;3724707;37;21310;-63
2022/02/17 08:35:54;;;;;;;;;24.00;21.75;;;;;11.53;100.00;99730.56;3725228;37;21332;-63
2022/02/17 08:38:30;;;;;;;;;20.25;20.25;;;;;11.59;100.00;99725.13;3725172;37;21459;-63
2022/02/17 08:40:59;;;;;;;;;19.50;17.25;;;;;11.71;100.00;99717.19;3725076;38;21314;-63
2022/02/17 08:43:29;;;;;;;;;23.25;23.25;;;;;11.74;100.00;99697.78;3725176;38;21311;-65
2022/02/17 08:46:02;;;;;;;;;26.00;25.50;;;;;11.70;100.00;99704.69;3725014;37;21323;-62
2022/02/17 08:48:29;;;;;;;;;25.00;24.50;;;;;11.83;100.00;99693.00;3725212;37;21310;-63
2022/02/17 08:50:57;;;;;;;;;22.75;21.25;;;;;11.98;100.00;99688.13;3725410;38;21303;-65
2022/02/17 08:53:28;;;;;;;;;25.75;21.75;;;;;12.05;100.00;99671.84;3725515;37;21433;-64
2022/02/17 08:55:57;;;;;;;;;27.50;26.25;;;;;12.20;100.00;99667.81;3727933;38;21215;-64
2022/02/17 08:58:24;;;;;;;;;24.75;22.50;;;;;12.36;100.00;99660.25;3726001;37;21294;-63
2022/02/17 09:00:52;;;;;;;;;32.00;29.50;;;;;12.50;100.00;99640.94;3725364;37;21465;-62
2022/02/17 09:03:19;;;;;;;;;19.25;19.00;;;;;12.60;97.48;99640.44;3726036;37;21428;-64
2022/02/17 09:05:47;;;;;;;;;16.50;15.00;;;;;12.64;94.97;99636.25;3725466;38;21370;-64
2022/02/17 09:08:16;;;;;;;;;12.75;12.00;;;;;12.68;92.22;99632.03;3725407;38;21299;-62
2022/02/17 09:10:56;;;;;;;;;21.00;19.00;;;;;12.76;91.20;99622.78;3724467;37;21323;-62
2022/02/17 09:13:24;;;;;;;;;25.00;25.00;;;;;12.92;89.92;99620.37;3725071;37;21488;-64
2022/02/17 09:15:51;;;;;;;;;13.00;12.25;;;;;12.95;88.02;99610.13;3725035;37;21219;-66
2022/02/17 09:18:19;;;;;;;;;17.25;16.75;;;;;13.14;87.25;99614.53;3725315;37;21498;-64
2022/02/17 09:20:46;;;;;;;;;16.25;16.25;;;;;13.28;87.17;99607.94;3728095;38;21358;-66
2022/02/17 09:23:15;;;;;;;;;15.00;14.25;;;;;13.36;85.33;99601.38;3725118;38;21348;-64
2022/02/17 09:25:43;;;;;;;;;14.00;13.50;;;;;13.41;83.38;99601.53;3732155;37;21378;-65
2022/02/17 09:28:11;;;;;;;;;16.75;15.50;;;;;13.45;82.75;99600.88;3725661;37;21485;-66
2022/02/17 09:30:41;;;;;;;;;17.75;16.50;;;;;13.57;82.18;99600.91;3725175;38;21352;-63
2022/02/17 09:33:09;;;;;;;;;11.50;10.50;;;;;13.63;79.84;99594.59;3725001;37;21356;-64
2022/02/17 09:35:38;;;;;;;;;12.25;11.50;;;;;13.63;79.08;99580.16;3724716;38;21329;-63
2022/02/17 09:38:05;;;;;;;;;11.25;10.75;;;;;13.72;78.75;99570.62;3725164;38;21527;-63
2022/02/17 09:40:32;;;;;;;;;11.25;10.25;;;;;13.79;77.81;99569.50;3725085;38;21322;-64
2022/02/17 09:43:00;;;;;;;;;10.00;9.75;;;;;13.77;77.63;99571.63;3724967;38;21237;-65
2022/02/17 09:45:29;;;;;;;;;9.75;9.25;;;;;13.87;76.31;99562.91;3726024;37;21343;-65
2022/02/17 09:47:56;;;;;;;;;12.25;11.25;;;;;13.93;77.20;99548.41;3725047;37;21453;-63
2022/02/17 09:50:23;;;;;;;;;14.50;13.00;;;;;14.08;75.90;99543.34;3725232;37;21333;-63
2022/02/17 09:52:53;;;;;;;;;6.00;4.50;;;;;14.12;74.35;99546.44;3726378;38;21353;-64
2022/02/17 09:55:25;;;;;;;;;9.50;9.00;;;;;14.12;72.36;99530.13;3737157;38;21144;-64
2022/02/17 09:57:53;;;;;;;;;8.75;8.75;;;;;13.96;69.94;99496.25;3734874;38;21222;-63
2022/02/17 10:00:21;;;;;;;;;11.75;11.00;;;;;14.22;68.85;99517.59;3726023;38;21219;-64
2022/02/17 10:02:48;;;;;;;;;7.50;7.25;;;;;14.30;69.77;99504.72;3728204;38;21275;-62
2022/02/17 10:05:16;;;;;;;;;13.25;12.50;;;;;14.32;69.45;99492.53;3725638;37;21259;-63
2022/02/17 10:07:45;;;;;;;;;6.75;6.50;;;;;14.51;68.40;99501.50;3725121;37;21304;-63
2022/02/17 10:10:16;;;;;;;;;16.50;14.75;;;;;14.68;69.69;99496.16;3725043;37;21219;-63
2022/02/17 10:12:59;;;;;;;;;11.50;11.50;;;;;14.75;65.85;99486.81;3724359;38;21413;-61
2022/02/17 10:15:37;;;;;;;;;15.50;14.75;;;;;14.87;65.25;99482.19;3725066;37;21437;-62
2022/02/17 10:18:15;;;;;;;;;11.25;10.25;;;;;14.95;64.21;99475.56;3724716;38;21470;-60
2022/02/17 10:21:05;;;;;;;;;14.50;13.25;;;;;14.97;64.35;99478.03;3724998;37;21268;-61
2022/02/17 10:23:45;;;;;;;;;11.75;9.00;;;;;15.02;62.44;99464.53;3724688;37;21468;-62
2022/02/17 10:26:19;;;;;;;;;20.00;19.25;;;;;15.15;62.10;99454.16;3724571;38;21260;-63
2022/02/17 10:28:59;;;;;;;;;5.75;3.75;;;;;15.23;61.79;99423.00;3724956;37;21154;-61
2022/02/17 10:31:35;;;;;;;;;11.75;10.00;;;;;15.52;60.33;99432.84;3725051;37;21200;-62
2022/02/17 10:34:05;;;;;;;;;9.75;9.25;;;;;15.59;59.40;99429.19;3725062;37;21256;-60
2022/02/17 10:36:39;;;;;;;;;21.25;20.25;;;;;15.67;58.58;99417.88;3724821;37;21236;-62
2022/02/17 10:39:23;;;;;;;;;11.00;10.50;;;;;15.70;56.86;99417.38;3725094;37;21168;-59
2022/02/17 10:42:04;;;;;;;;;6.50;6.25;;;;;15.67;54.98;99412.41;3724891;37;21118;-60
2022/02/17 10:44:34;;;;;;;;;7.50;7.50;;;;;15.69;54.48;99410.25;3725009;37;21207;-60
2022/02/17 10:47:22;;;;;;;;;11.00;9.75;;;;;15.73;53.79;99389.59;3724966;37;21146;-61
2022/02/17 10:49:52;;;;;;;;;9.00;8.25;;;;;15.82;52.82;99379.94;3724754;37;21217;-60
2022/02/17 10:52:34;;;;;;;;;12.50;12.25;;;;;15.89;53.13;99370.53;3725132;38;21352;-61
2022/02/17 10:55:13;;;;;;;;;7.25;6.50;;;;;15.96;51.80;99364.91;3724982;38;21133;-62
2022/02/17 10:57:41;;;;;;;;;11.25;10.25;;;;;16.01;49.31;99353.25;3724728;37;21340;-61
2022/02/17 11:00:27;;;;;;;;;7.75;7.25;;;;;16.11;49.76;99350.69;3724729;38;21402;-61
2022/02/17 11:02:58;;;;;;;;;8.00;7.00;;;;;16.15;48.85;99347.19;3724661;38;21312;-61
2022/02/17 11:05:30;;;;;;;;;7.25;7.25;;;;;16.25;47.78;99342.97;3724803;38;21199;-62
2022/02/17 11:07:58;;;;;;;;;9.50;9.25;;;;;16.28;46.49;99324.19;3724562;37;21371;-61
2022/02/17 11:10:27;;;;;;;;;8.00;8.00;;;;;16.36;45.77;99331.94;3725047;38;21029;-60
2022/02/17 11:13:01;;;;;;;;;10.25;9.75;;;;;16.41;46.68;99318.38;3724614;38;21134;-60
2022/02/17 11:15:40;;;;;;;;;12.25;12.25;;;;;16.59;46.85;99333.62;3724979;38;21506;-60
2022/02/17 11:18:10;;;;;;;;;14.25;13.25;;;;;16.51;45.60;99339.53;3724989;37;21231;-62
2022/02/17 11:20:39;;;;;;;;;17.75;17.00;;;;;16.44;46.01;99339.72;3725134;38;21211;-61
2022/02/17 11:23:06;;;;;;;;;14.50;14.25;;;;;16.34;44.91;99336.00;3725192;38;21234;-62
2022/02/17 11:25:39;;;;;;;;;12.50;12.00;;;;;16.30;45.69;99335.69;3725842;37;21211;-62
2022/02/17 11:28:09;;;;;;;;;14.00;14.00;;;;;16.21;46.17;99339.91;3726131;37;21217;-62
2022/02/17 11:30:41;;;;;;;;;15.25;13.25;;;;;16.26;46.46;99333.69;3733262;38;21103;-63